sensor_id;sensor_type;location;lat;lon;timestamp;pressure;altitude;pressure_sealevel;temperature;humidity
4449;BME280;2237;51.870;6.160;2023-04-01T00:01:05;99003.94;;;11.66;100.00
4449;BME280;2237;51.870;6.160;2023-04-01T00:03:33;99006.41;;;11.69;100.00
4449;BME280;2237;51.870;6.160;2023-04-01T00:06:00;99001.66;;;11.60;100.00
4449;BME280;2237;51.870;6.160;2023-04-01T00:08:28;99007.72;;;11.61;100.00
4449;BME280;2237;51.870;6.160;2023-04-01T00:10:55;98998.63;;;11.52;100.00
4449;BME280;2237;51.870;6.160;2023-04-01T00:13:24;99005.63;;;11.52;100.00
4449;BME280;2237;51.870;6.160;2023-04-01T00:15:53;99007.91;;;11.58;100.00
4449;BME280;2237;51.870;6.160;2023-04-01T00:18:22;99006.13;;;11.74;100.00
4449;BME280;2237;51.870;6.160;2023-04-01T00:20:50;99003.00;;;11.67;100.00
4449;BME280;2237;51.870;6.160;2023-04-01T00:23:17;99003.25;;;11.63;100.00
4449;BME280;2237;51.870;6.160;2023-04-01T00:25:45;99008.47;;;11.63;100.00
4449;BME280;2237;51.870;6.160;2023-04-01T00:28:14;99004.91;;;11.64;100.00
4449;BME280;2237;51.870;6.160;2023-04-01T00:30:40;99014.25;;;11.52;100.00
4449;BME280;2237;51.870;6.160;2023-04-01T00:33:07;99004.78;;;11.51;100.00
4449;BME280;2237;51.870;6.160;2023-04-01T00:35:33;99012.50;;;11.53;100.00
4449;BME280;2237;51.870;6.160;2023-04-01T00:38:00;99012.44;;;11.54;100.00
4449;BME280;2237;51.870;6.160;2023-04-01T00:40:33;99020.31;;;11.53;100.00
4449;BME280;2237;51.870;6.160;2023-04-01T00:43:01;99020.16;;;11.56;100.00
4449;BME280;2237;51.870;6.160;2023-04-01T00:45:29;99012.44;;;11.54;100.00
4449;BME280;2237;51.870;6.160;2023-04-01T00:48:00;99020.09;;;11.57;100.00
4449;BME280;2237;51.870;6.160;2023-04-01T00:50:28;99014.25;;;11.52;100.00
4449;BME280;2237;51.870;6.160;2023-04-01T00:52:57;99009.81;;;11.54;100.00
4449;BME280;2237;51.870;6.160;2023-04-01T00:55:26;99021.00;;;11.56;100.00
4449;BME280;2237;51.870;6.160;2023-04-01T00:57:55;99008.97;;;11.54;100.00
4449;BME280;2237;51.870;6.160;2023-04-01T01:00:23;99014.72;;;11.60;100.00
4449;BME280;2237;51.870;6.160;2023-04-01T01:02:50;99013.13;;;11.58;100.00
4449;BME280;2237;51.870;6.160;2023-04-01T01:05:21;99010.22;;;11.47;100.00
4449;BME280;2237;51.870;6.160;2023-04-01T01:07:56;99017.31;;;11.45;100.00
4449;BME280;2237;51.870;6.160;2023-04-01T01:10:33;99022.88;;;11.54;100.00
4449;BME280;2237;51.870;6.160;2023-04-01T01:13:27;99019.84;;;11.46;100.00
4449;BME280;2237;51.870;6.160;2023-04-01T01:16:13;99025.81;;;11.48;100.00
4449;BME280;2237;51.870;6.160;2023-04-01T01:19:04;99031.59;;;11.53;100.00
4449;BME280;2237;51.870;6.160;2023-04-01T01:21:56;99026.97;;;11.58;100.00
4449;BME280;2237;51.870;6.160;2023-04-01T01:27:18;99032.19;;;11.58;100.00
4449;BME280;2237;51.870;6.160;2023-04-01T01:32:48;99034.28;;;11.67;100.00
4449;BME280;2237;51.870;6.160;2023-04-01T01:38:10;99027.41;;;11.66;100.00
4449;BME280;2237;51.870;6.160;2023-04-01T01:40:41;99042.91;;;11.69;100.00
4449;BME280;2237;51.870;6.160;2023-04-01T01:43:12;99036.88;;;11.67;100.00
4449;BME280;2237;51.870;6.160;2023-04-01T01:45:40;99033.31;;;11.70;100.00
4449;BME280;2237;51.870;6.160;2023-04-01T01:48:11;99036.56;;;11.58;100.00
4449;BME280;2237;51.870;6.160;2023-04-01T01:50:38;99034.56;;;11.63;100.00
4449;BME280;2237;51.870;6.160;2023-04-01T01:53:09;99037.22;;;11.61;100.00
4449;BME280;2237;51.870;6.160;2023-04-01T01:55:38;99038.59;;;11.68;100.00
4449;BME280;2237;51.870;6.160;2023-04-01T01:58:17;99036.88;;;11.67;100.00
4449;BME280;2237;51.870;6.160;2023-04-01T02:00:48;99043.72;;;11.70;100.00
4449;BME280;2237;51.870;6.160;2023-04-01T02:03:17;99032.50;;;11.69;100.00
4449;BME280;2237;51.870;6.160;2023-04-01T02:05:45;99038.91;;;11.62;100.00
4449;BME280;2237;51.870;6.160;2023-04-01T02:08:16;99039.66;;;11.64;100.00
4449;BME280;2237;51.870;6.160;2023-04-01T02:10:49;99046.75;;;11.62;100.00
4449;BME280;2237;51.870;6.160;2023-04-01T02:13:27;99049.09;;;11.67;100.00
4449;BME280;2237;51.870;6.160;2023-04-01T02:15:59;99051.31;;;11.74;100.00
4449;BME280;2237;51.870;6.160;2023-04-01T02:18:28;99053.81;;;11.76;100.00
4449;BME280;2237;51.870;6.160;2023-04-01T02:20:57;99049.63;;;11.73;100.00
4449;BME280;2237;51.870;6.160;2023-04-01T02:23:26;99048.34;;;11.65;100.00
4449;BME280;2237;51.870;6.160;2023-04-01T02:25:54;99054.84;;;11.73;100.00
4449;BME280;2237;51.870;6.160;2023-04-01T02:28:22;99064.09;;;11.79;100.00
4449;BME280;2237;51.870;6.160;2023-04-01T02:30:50;99055.78;;;11.72;100.00
4449;BME280;2237;51.870;6.160;2023-04-01T02:33:18;99056.53;;;11.74;100.00
4449;BME280;2237;51.870;6.160;2023-04-01T02:35:45;99049.72;;;11.72;100.00
4449;BME280;2237;51.870;6.160;2023-04-01T02:38:12;99055.78;;;11.72;100.00
4449;BME280;2237;51.870;6.160;2023-04-01T02:40:50;99059.31;;;11.71;100.00
4449;BME280;2237;51.870;6.160;2023-04-01T02:43:17;99067.66;;;11.78;100.00
4449;BME280;2237;51.870;6.160;2023-04-01T02:45:44;99056.84;;;11.68;100.00
4449;BME280;2237;51.870;6.160;2023-04-01T02:48:11;99066.41;;;11.68;100.00
4449;BME280;2237;51.870;6.160;2023-04-01T02:50:38;99073.81;;;11.60;100.00
4449;BME280;2237;51.870;6.160;2023-04-01T02:53:05;99063.13;;;11.64;100.00
4449;BME280;2237;51.870;6.160;2023-04-01T02:55:33;99074.09;;;11.71;100.00
4449;BME280;2237;51.870;6.160;2023-04-01T02:58:00;99070.66;;;11.70;100.00
4449;BME280;2237;51.870;6.160;2023-04-01T03:00:27;99069.03;;;11.68;100.00
4449;BME280;2237;51.870;6.160;2023-04-01T03:02:53;99071.81;;;11.65;100.00
4449;BME280;2237;51.870;6.160;2023-04-01T03:05:20;99069.94;;;11.67;100.00
4449;BME280;2237;51.870;6.160;2023-04-01T03:07:47;99074.34;;;11.66;100.00
4449;BME280;2237;51.870;6.160;2023-04-01T03:10:13;99081.38;;;11.64;100.00
4449;BME280;2237;51.870;6.160;2023-04-01T03:12:40;99086.59;;;11.64;100.00
4449;BME280;2237;51.870;6.160;2023-04-01T03:15:08;99084.94;;;11.63;100.00
4449;BME280;2237;51.870;6.160;2023-04-01T03:17:37;99091.22;;;11.59;100.00
4449;BME280;2237;51.870;6.160;2023-04-01T03:20:05;99085.50;;;11.53;100.00
4449;BME280;2237;51.870;6.160;2023-04-01T03:22:31;99084.16;;;11.46;100.00
4449;BME280;2237;51.870;6.160;2023-04-01T03:24:58;99091.56;;;11.53;100.00
4449;BME280;2237;51.870;6.160;2023-04-01T03:27:24;99092.06;;;11.60;100.00
4449;BME280;2237;51.870;6.160;2023-04-01T03:29:50;99096.19;;;11.64;100.00
4449;BME280;2237;51.870;6.160;2023-04-01T03:32:17;99094.31;;;11.50;100.00
4449;BME280;2237;51.870;6.160;2023-04-01T03:34:43;99094.81;;;11.41;100.00
4449;BME280;2237;51.870;6.160;2023-04-01T03:37:10;99097.78;;;11.51;100.00
4449;BME280;2237;51.870;6.160;2023-04-01T03:39:36;99095.38;;;11.63;100.00
4449;BME280;2237;51.870;6.160;2023-04-01T03:42:03;99094.41;;;11.64;100.00
4449;BME280;2237;51.870;6.160;2023-04-01T03:44:33;99097.19;;;11.61;100.00
4449;BME280;2237;51.870;6.160;2023-04-01T03:46:59;99108.78;;;11.56;100.00
4449;BME280;2237;51.870;6.160;2023-04-01T03:49:26;99097.25;;;11.44;100.00
4449;BME280;2237;51.870;6.160;2023-04-01T03:51:53;99104.00;;;11.48;100.00
4449;BME280;2237;51.870;6.160;2023-04-01T03:54:20;99099.97;;;11.58;100.00
4449;BME280;2237;51.870;6.160;2023-04-01T03:56:46;99100.28;;;11.52;100.00
4449;BME280;2237;51.870;6.160;2023-04-01T03:59:13;99109.97;;;11.50;100.00
4449;BME280;2237;51.870;6.160;2023-04-01T04:01:40;99103.59;;;11.56;100.00
4449;BME280;2237;51.870;6.160;2023-04-01T04:04:06;99107.19;;;11.53;100.00
4449;BME280;2237;51.870;6.160;2023-04-01T04:06:33;99108.13;;;11.52;100.00
4449;BME280;2237;51.870;6.160;2023-04-01T04:08:59;99104.84;;;11.49;100.00
4449;BME280;2237;51.870;6.160;2023-04-01T04:11:25;99105.59;;;11.51;100.00
4449;BME280;2237;51.870;6.160;2023-04-01T04:13:52;99104.00;;;11.48;100.00
4449;BME280;2237;51.870;6.160;2023-04-01T04:16:19;99115.03;;;11.53;100.00
4449;BME280;2237;51.870;6.160;2023-04-01T04:18:46;99112.25;;;11.56;100.00
4449;BME280;2237;51.870;6.160;2023-04-01T04:21:13;99106.13;;;11.57;100.00
4449;BME280;2237;51.870;6.160;2023-04-01T04:23:40;99115.44;;;11.61;100.00
4449;BME280;2237;51.870;6.160;2023-04-01T04:26:10;99112.19;;;11.58;100.00
4449;BME280;2237;51.870;6.160;2023-04-01T04:28:37;99117.88;;;11.64;100.00
4449;BME280;2237;51.870;6.160;2023-04-01T04:31:03;99122.81;;;11.70;100.00
4449;BME280;2237;51.870;6.160;2023-04-01T04:33:32;99123.09;;;11.64;100.00
4449;BME280;2237;51.870;6.160;2023-04-01T04:35:59;99111.66;;;11.51;100.00
4449;BME280;2237;51.870;6.160;2023-04-01T04:38:26;99127.47;;;11.48;100.00
4449;BME280;2237;51.870;6.160;2023-04-01T04:40:53;99127.25;;;11.35;100.00
4449;BME280;2237;51.870;6.160;2023-04-01T04:43:20;99124.50;;;11.39;100.00
4449;BME280;2237;51.870;6.160;2023-04-01T04:45:47;99127.03;;;11.40;100.00
4449;BME280;2237;51.870;6.160;2023-04-01T04:48:15;99134.69;;;11.43;100.00
4449;BME280;2237;51.870;6.160;2023-04-01T04:50:48;99134.00;;;11.40;100.00
4449;BME280;2237;51.870;6.160;2023-04-01T04:53:17;99128.03;;;11.38;100.00
4449;BME280;2237;51.870;6.160;2023-04-01T04:55:49;99134.84;;;11.40;100.00
4449;BME280;2237;51.870;6.160;2023-04-01T04:58:16;99136.69;;;11.38;100.00
4449;BME280;2237;51.870;6.160;2023-04-01T05:00:43;99140.22;;;11.37;100.00
4449;BME280;2237;51.870;6.160;2023-04-01T05:03:10;99145.44;;;11.37;100.00
4449;BME280;2237;51.870;6.160;2023-04-01T05:05:37;99145.75;;;11.31;100.00
4449;BME280;2237;51.870;6.160;2023-04-01T05:08:04;99136.09;;;11.33;100.00
4449;BME280;2237;51.870;6.160;2023-04-01T05:10:31;99153.47;;;11.32;100.00
4449;BME280;2237;51.870;6.160;2023-04-01T05:12:58;99145.19;;;11.42;100.00
4449;BME280;2237;51.870;6.160;2023-04-01T05:15:24;99157.06;;;11.47;100.00
4449;BME280;2237;51.870;6.160;2023-04-01T05:17:51;99150.66;;;11.37;100.00
4449;BME280;2237;51.870;6.160;2023-04-01T05:20:17;99152.63;;;11.32;100.00
4449;BME280;2237;51.870;6.160;2023-04-01T05:22:44;99150.03;;;11.32;100.00
4449;BME280;2237;51.870;6.160;2023-04-01T05:25:10;99155.34;;;11.30;100.00
4449;BME280;2237;51.870;6.160;2023-04-01T05:27:37;99155.41;;;11.29;100.00
4449;BME280;2237;51.870;6.160;2023-04-01T05:30:04;99160.00;;;11.24;100.00
4449;BME280;2237;51.870;6.160;2023-04-01T05:32:31;99155.66;;;11.24;100.00
4449;BME280;2237;51.870;6.160;2023-04-01T05:34:58;99163.22;;;11.29;100.00
4449;BME280;2237;51.870;6.160;2023-04-01T05:37:24;99156.34;;;11.28;100.00
4449;BME280;2237;51.870;6.160;2023-04-01T05:39:51;99156.94;;;11.33;100.00
4449;BME280;2237;51.870;6.160;2023-04-01T05:42:17;99170.88;;;11.32;100.00
4449;BME280;2237;51.870;6.160;2023-04-01T05:44:44;99164.75;;;11.33;100.00
4449;BME280;2237;51.870;6.160;2023-04-01T05:47:10;99173.31;;;11.35;100.00
4449;BME280;2237;51.870;6.160;2023-04-01T05:49:37;99177.34;;;11.25;100.00
4449;BME280;2237;51.870;6.160;2023-04-01T05:52:03;99176.75;;;11.20;100.00
4449;BME280;2237;51.870;6.160;2023-04-01T05:54:30;99173.97;;;11.23;100.00
4449;BME280;2237;51.870;6.160;2023-04-01T05:56:56;99179.19;;;11.23;100.00
4449;BME280;2237;51.870;6.160;2023-04-01T05:59:23;99180.84;;;11.24;100.00
4449;BME280;2237;51.870;6.160;2023-04-01T06:01:49;99181.13;;;11.35;100.00
4449;BME280;2237;51.870;6.160;2023-04-01T06:04:17;99186.81;;;11.43;100.00
4449;BME280;2237;51.870;6.160;2023-04-01T06:06:44;99182.06;;;11.51;100.00
4449;BME280;2237;51.870;6.160;2023-04-01T06:09:19;99186.16;;;11.55;100.00
4449;BME280;2237;51.870;6.160;2023-04-01T06:12:22;99194.00;;;11.38;100.00
4449;BME280;2237;51.870;6.160;2023-04-01T06:17:56;99198.75;;;11.47;100.00
4449;BME280;2237;51.870;6.160;2023-04-01T06:24:06;99206.28;;;11.36;100.00
4449;BME280;2237;51.870;6.160;2023-04-01T06:26:37;99209.06;;;11.33;100.00
4449;BME280;2237;51.870;6.160;2023-04-01T06:32:33;99214.25;;;11.33;100.00
4449;BME280;2237;51.870;6.160;2023-04-01T06:35:20;99228.44;;;11.27;100.00
4449;BME280;2237;51.870;6.160;2023-04-01T06:41:13;99232.97;;;11.41;100.00
4449;BME280;2237;51.870;6.160;2023-04-01T06:46:44;99243.84;;;11.66;100.00
4449;BME280;2237;51.870;6.160;2023-04-01T06:49:35;99245.81;;;11.78;100.00
4449;BME280;2237;51.870;6.160;2023-04-01T06:52:24;99242.72;;;11.87;100.00
4449;BME280;2237;51.870;6.160;2023-04-01T06:57:50;99250.81;;;11.99;100.00
4449;BME280;2237;51.870;6.160;2023-04-01T07:00:25;99256.81;;;12.16;100.00
4449;BME280;2237;51.870;6.160;2023-04-01T07:05:40;99253.56;;;12.28;100.00
4449;BME280;2237;51.870;6.160;2023-04-01T07:08:15;99264.41;;;12.36;100.00
4449;BME280;2237;51.870;6.160;2023-04-01T07:10:47;99269.81;;;12.49;100.00
4449;BME280;2237;51.870;6.160;2023-04-01T07:13:24;99265.13;;;12.56;100.00
4449;BME280;2237;51.870;6.160;2023-04-01T07:16:05;99272.28;;;12.52;100.00
4449;BME280;2237;51.870;6.160;2023-04-01T07:19:02;99269.16;;;12.61;100.00
4449;BME280;2237;51.870;6.160;2023-04-01T07:21:49;99272.50;;;12.63;100.00
4449;BME280;2237;51.870;6.160;2023-04-01T07:24:27;99275.53;;;12.71;100.00
4449;BME280;2237;51.870;6.160;2023-04-01T07:26:57;99283.47;;;12.70;100.00
4449;BME280;2237;51.870;6.160;2023-04-01T07:29:25;99285.75;;;12.60;100.00
4449;BME280;2237;51.870;6.160;2023-04-01T07:51:34;99310.09;;;13.08;100.00
4449;BME280;2237;51.870;6.160;2023-04-01T07:57:15;99325.22;;;13.32;100.00
4449;BME280;2237;51.870;6.160;2023-04-01T08:02:58;99338.16;;;13.20;100.00
4449;BME280;2237;51.870;6.160;2023-04-01T08:11:12;99341.59;;;13.36;100.00
4449;BME280;2237;51.870;6.160;2023-04-01T08:13:51;99351.84;;;13.54;100.00
4449;BME280;2237;51.870;6.160;2023-04-01T08:19:13;99348.84;;;13.46;100.00
4449;BME280;2237;51.870;6.160;2023-04-01T08:21:45;99359.31;;;13.31;100.00
4449;BME280;2237;51.870;6.160;2023-04-01T08:24:27;99355.66;;;13.49;100.00
4449;BME280;2237;51.870;6.160;2023-04-01T08:30:23;99371.41;;;13.63;100.00
4449;BME280;2237;51.870;6.160;2023-04-01T08:32:59;99371.13;;;13.68;100.00
4449;BME280;2237;51.870;6.160;2023-04-01T08:38:43;99375.97;;;14.03;100.00
4449;BME280;2237;51.870;6.160;2023-04-01T08:46:50;99383.47;;;14.24;100.00
4449;BME280;2237;51.870;6.160;2023-04-01T08:50:00;99393.63;;;14.44;100.00
4449;BME280;2237;51.870;6.160;2023-04-01T08:53:00;99393.44;;;14.33;100.00
4449;BME280;2237;51.870;6.160;2023-04-01T08:55:59;99382.66;;;14.37;100.00
4449;BME280;2237;51.870;6.160;2023-04-01T08:58:37;99391.09;;;13.84;100.00
4449;BME280;2237;51.870;6.160;2023-04-01T09:01:19;99411.22;;;13.68;100.00
4449;BME280;2237;51.870;6.160;2023-04-01T09:03:58;99406.53;;;13.73;100.00
4449;BME280;2237;51.870;6.160;2023-04-01T09:09:36;99421.78;;;13.67;100.00
4449;BME280;2237;51.870;6.160;2023-04-01T09:21:15;99435.88;;;13.33;100.00
4449;BME280;2237;51.870;6.160;2023-04-01T09:24:03;99433.69;;;13.41;100.00
4449;BME280;2237;51.870;6.160;2023-04-01T09:26:49;99442.31;;;13.12;100.00
4449;BME280;2237;51.870;6.160;2023-04-01T09:30:00;99444.69;;;13.32;100.00
4449;BME280;2237;51.870;6.160;2023-04-01T09:35:46;99451.81;;;13.44;100.00
4449;BME280;2237;51.870;6.160;2023-04-01T09:38:22;99452.34;;;13.35;100.00
4449;BME280;2237;51.870;6.160;2023-04-01T09:43:25;99459.28;;;13.20;100.00
4449;BME280;2237;51.870;6.160;2023-04-01T09:46:02;99473.00;;;13.39;100.00
4449;BME280;2237;51.870;6.160;2023-04-01T09:49:09;99462.94;;;13.63;100.00
4449;BME280;2237;51.870;6.160;2023-04-01T09:54:44;99473.13;;;13.83;100.00
4449;BME280;2237;51.870;6.160;2023-04-01T10:20:01;99493.53;;;13.92;100.00
4449;BME280;2237;51.870;6.160;2023-04-01T10:26:09;99502.31;;;13.91;100.00
4449;BME280;2237;51.870;6.160;2023-04-01T10:31:28;99512.47;;;13.50;100.00
4449;BME280;2237;51.870;6.160;2023-04-01T10:36:51;99521.09;;;13.37;100.00
4449;BME280;2237;51.870;6.160;2023-04-01T10:39:34;99519.22;;;13.23;100.00
4449;BME280;2237;51.870;6.160;2023-04-01T10:48:03;99536.47;;;13.10;100.00
4449;BME280;2237;51.870;6.160;2023-04-01T10:51:13;99531.25;;;13.10;100.00
4449;BME280;2237;51.870;6.160;2023-04-01T10:56:36;99549.50;;;13.12;100.00
4449;BME280;2237;51.870;6.160;2023-04-01T11:04:56;99562.72;;;13.09;100.00
4449;BME280;2237;51.870;6.160;2023-04-01T11:22:19;99568.00;;;13.40;100.00
4449;BME280;2237;51.870;6.160;2023-04-01T11:28:10;99575.13;;;13.21;100.00
4449;BME280;2237;51.870;6.160;2023-04-01T11:31:09;99578.75;;;13.18;100.00
4449;BME280;2237;51.870;6.160;2023-04-01T11:33:46;99585.91;;;13.15;100.00
4449;BME280;2237;51.870;6.160;2023-04-01T11:42:09;99603.22;;;13.00;100.00
4449;BME280;2237;51.870;6.160;2023-04-01T11:47:48;99609.94;;;13.21;100.00
4449;BME280;2237;51.870;6.160;2023-04-01T11:53:32;99622.31;;;13.00;100.00
4449;BME280;2237;51.870;6.160;2023-04-01T11:56:31;99622.81;;;12.91;100.00
4449;BME280;2237;51.870;6.160;2023-04-01T11:59:31;99626.03;;;12.96;100.00
4449;BME280;2237;51.870;6.160;2023-04-01T12:02:16;99633.44;;;12.88;100.00
4449;BME280;2237;51.870;6.160;2023-04-01T12:05:18;99630.03;;;12.69;100.00
4449;BME280;2237;51.870;6.160;2023-04-01T12:08:06;99639.28;;;12.76;100.00
4449;BME280;2237;51.870;6.160;2023-04-01T12:13:14;99655.78;;;12.77;100.00
4449;BME280;2237;51.870;6.160;2023-04-01T12:15:59;99649.56;;;12.79;100.00
4449;BME280;2237;51.870;6.160;2023-04-01T12:18:48;99647.25;;;12.90;100.00
4449;BME280;2237;51.870;6.160;2023-04-01T12:21:35;99652.69;;;12.86;100.00
4449;BME280;2237;51.870;6.160;2023-04-01T12:24:22;99658.91;;;13.00;100.00
4449;BME280;2237;51.870;6.160;2023-04-01T12:27:06;99653.47;;;13.22;100.00
4449;BME280;2237;51.870;6.160;2023-04-01T12:30:00;99652.72;;;13.53;100.00
4449;BME280;2237;51.870;6.160;2023-04-01T12:38:51;99648.03;;;13.75;100.00
4449;BME280;2237;51.870;6.160;2023-04-01T12:41:46;99651.56;;;13.74;100.00
4449;BME280;2237;51.870;6.160;2023-04-01T12:44:33;99656.97;;;13.71;100.00
4449;BME280;2237;51.870;6.160;2023-04-01T12:53:00;99669.00;;;14.06;100.00
4449;BME280;2237;51.870;6.160;2023-04-01T12:55:39;99658.69;;;14.19;100.00
4449;BME280;2237;51.870;6.160;2023-04-01T12:58:22;99670.50;;;14.26;100.00
4449;BME280;2237;51.870;6.160;2023-04-01T13:07:19;99687.28;;;14.69;100.00
4449;BME280;2237;51.870;6.160;2023-04-01T13:15:14;99696.16;;;14.82;100.00
4449;BME280;2237;51.870;6.160;2023-04-01T13:23:14;99706.25;;;15.48;100.00
4449;BME280;2237;51.870;6.160;2023-04-01T13:26:03;99697.06;;;15.41;100.00
4449;BME280;2237;51.870;6.160;2023-04-01T13:28:51;99715.19;;;15.29;100.00
4449;BME280;2237;51.870;6.160;2023-04-01T13:34:32;99726.75;;;14.82;100.00
4449;BME280;2237;51.870;6.160;2023-04-01T13:40:12;99733.59;;;14.84;100.00
4449;BME280;2237;51.870;6.160;2023-04-01T13:42:49;99731.53;;;14.59;100.00
4449;BME280;2237;51.870;6.160;2023-04-01T13:45:29;99741.00;;;14.62;100.00
4449;BME280;2237;51.870;6.160;2023-04-01T14:10:08;99770.75;;;14.77;100.00
4449;BME280;2237;51.870;6.160;2023-04-01T14:15:49;99780.63;;;14.71;100.00
4449;BME280;2237;51.870;6.160;2023-04-01T14:21:29;99785.69;;;14.75;100.00
4449;BME280;2237;51.870;6.160;2023-04-01T14:24:31;99793.47;;;14.76;100.00
4449;BME280;2237;51.870;6.160;2023-04-01T14:27:18;99796.50;;;14.68;100.00
4449;BME280;2237;51.870;6.160;2023-04-01T14:41:39;99812.47;;;14.48;100.00
4449;BME280;2237;51.870;6.160;2023-04-01T14:44:22;99818.91;;;14.43;100.00
4449;BME280;2237;51.870;6.160;2023-04-01T14:49:32;99834.56;;;14.44;100.00
4449;BME280;2237;51.870;6.160;2023-04-01T14:52:13;99830.00;;;14.48;100.00
4449;BME280;2237;51.870;6.160;2023-04-01T14:54:44;99839.69;;;14.46;100.00
4449;BME280;2237;51.870;6.160;2023-04-01T14:59:46;99842.75;;;14.38;100.00
4449;BME280;2237;51.870;6.160;2023-04-01T15:05:15;99851.72;;;14.50;100.00
4449;BME280;2237;51.870;6.160;2023-04-01T15:08:05;99847.00;;;14.56;100.00
4449;BME280;2237;51.870;6.160;2023-04-01T15:10:53;99860.72;;;14.77;100.00
4449;BME280;2237;51.870;6.160;2023-04-01T15:13:36;99859.25;;;14.87;100.00
4449;BME280;2237;51.870;6.160;2023-04-01T15:16:25;99861.28;;;15.13;100.00
4449;BME280;2237;51.870;6.160;2023-04-01T15:19:23;99865.16;;;15.22;100.00
4449;BME280;2237;51.870;6.160;2023-04-01T15:22:26;99868.97;;;15.16;100.00
4449;BME280;2237;51.870;6.160;2023-04-01T15:25:20;99877.34;;;15.07;100.00
4449;BME280;2237;51.870;6.160;2023-04-01T15:42:18;99905.28;;;14.60;100.00
4449;BME280;2237;51.870;6.160;2023-04-01T15:44:53;99909.94;;;14.55;100.00
4449;BME280;2237;51.870;6.160;2023-04-01T15:50:42;99918.81;;;14.52;100.00
4449;BME280;2237;51.870;6.160;2023-04-01T15:55:27;99933.00;;;14.48;100.00
4449;BME280;2237;51.870;6.160;2023-04-01T16:00:53;99933.00;;;14.48;100.00
4449;BME280;2237;51.870;6.160;2023-04-01T16:03:42;99941.63;;;14.50;100.00
4449;BME280;2237;51.870;6.160;2023-04-01T16:09:24;99954.63;;;14.36;100.00
4449;BME280;2237;51.870;6.160;2023-04-01T16:12:03;99961.97;;;14.28;100.00
4449;BME280;2237;51.870;6.160;2023-04-01T16:14:52;99970.50;;;14.32;100.00
4449;BME280;2237;51.870;6.160;2023-04-01T16:20:19;99976.22;;;14.05;100.00
4449;BME280;2237;51.870;6.160;2023-04-01T16:22:56;99979.09;;;14.01;100.00
4449;BME280;2237;51.870;6.160;2023-04-01T16:28:23;99981.00;;;14.14;100.00
4449;BME280;2237;51.870;6.160;2023-04-01T16:38:41;100004.41;;;14.00;100.00
4449;BME280;2237;51.870;6.160;2023-04-01T16:41:17;100002.69;;;13.99;100.00
4449;BME280;2237;51.870;6.160;2023-04-01T16:43:51;100008.53;;;13.87;100.00
4449;BME280;2237;51.870;6.160;2023-04-01T16:46:41;100024.09;;;13.90;100.00
4449;BME280;2237;51.870;6.160;2023-04-01T16:57:18;100036.72;;;13.99;100.00
4449;BME280;2237;51.870;6.160;2023-04-01T17:02:23;100048.75;;;13.86;100.00
4449;BME280;2237;51.870;6.160;2023-04-01T17:12:37;100069.16;;;13.61;100.00
4449;BME280;2237;51.870;6.160;2023-04-01T17:15:31;100081.06;;;13.48;100.00
4449;BME280;2237;51.870;6.160;2023-04-01T17:18:09;100083.13;;;13.41;100.00
4449;BME280;2237;51.870;6.160;2023-04-01T17:20:42;100087.13;;;13.30;100.00
4449;BME280;2237;51.870;6.160;2023-04-01T17:28:24;100109.19;;;13.24;100.00
4449;BME280;2237;51.870;6.160;2023-04-01T17:33:43;100124.34;;;13.36;100.00
4449;BME280;2237;51.870;6.160;2023-04-01T17:36:39;100137.63;;;13.32;100.00
4449;BME280;2237;51.870;6.160;2023-04-01T17:41:55;100144.94;;;13.24;100.00
4449;BME280;2237;51.870;6.160;2023-04-01T17:50:01;100162.84;;;12.92;100.00
4449;BME280;2237;51.870;6.160;2023-04-01T17:52:34;100169.91;;;12.90;100.00
4449;BME280;2237;51.870;6.160;2023-04-01T18:00:33;100187.06;;;12.76;100.00
4449;BME280;2237;51.870;6.160;2023-04-01T18:11:53;100218.53;;;12.73;100.00
4449;BME280;2237;51.870;6.160;2023-04-01T18:14:31;100225.97;;;12.62;100.00
4449;BME280;2237;51.870;6.160;2023-04-01T18:22:41;100246.06;;;12.60;100.00
4449;BME280;2237;51.870;6.160;2023-04-01T18:25:16;100250.19;;;12.43;100.00
4449;BME280;2237;51.870;6.160;2023-04-01T18:27:48;100260.56;;;12.45;100.00
4449;BME280;2237;51.870;6.160;2023-04-01T18:30:30;100268.28;;;12.48;100.00
4449;BME280;2237;51.870;6.160;2023-04-01T18:33:18;100272.72;;;12.46;100.00
4449;BME280;2237;51.870;6.160;2023-04-01T18:39:02;100286.47;;;12.28;100.00
4449;BME280;2237;51.870;6.160;2023-04-01T18:41:49;100288.72;;;12.15;100.00
4449;BME280;2237;51.870;6.160;2023-04-01T18:44:46;100302.00;;;12.09;100.00
4449;BME280;2237;51.870;6.160;2023-04-01T18:50:11;100318.84;;;12.24;100.00
4449;BME280;2237;51.870;6.160;2023-04-01T18:52:43;100320.53;;;12.25;100.00
4449;BME280;2237;51.870;6.160;2023-04-01T18:55:30;100327.47;;;12.26;100.00
4449;BME280;2237;51.870;6.160;2023-04-01T19:00:46;100339.44;;;12.31;100.00
4449;BME280;2237;51.870;6.160;2023-04-01T19:03:22;100350.28;;;12.21;100.00
4449;BME280;2237;51.870;6.160;2023-04-01T19:05:55;100349.44;;;12.20;100.00
4449;BME280;2237;51.870;6.160;2023-04-01T19:08:31;100362.66;;;12.16;100.00
4449;BME280;2237;51.870;6.160;2023-04-01T19:16:33;100372.34;;;12.12;100.00
4449;BME280;2237;51.870;6.160;2023-04-01T19:27:48;100397.91;;;12.03;100.00
4449;BME280;2237;51.870;6.160;2023-04-01T19:33:12;100408.56;;;11.97;100.00
4449;BME280;2237;51.870;6.160;2023-04-01T19:38:31;100415.13;;;11.83;100.00
4449;BME280;2237;51.870;6.160;2023-04-01T19:41:18;100416.22;;;11.76;100.00
4449;BME280;2237;51.870;6.160;2023-04-01T19:46:44;100429.75;;;11.87;100.00
4449;BME280;2237;51.870;6.160;2023-04-01T19:54:35;100445.97;;;11.71;100.00
4449;BME280;2237;51.870;6.160;2023-04-01T19:59:59;100457.06;;;11.77;100.00
4449;BME280;2237;51.870;6.160;2023-04-01T20:14:14;100493.16;;;11.63;100.00
4449;BME280;2237;51.870;6.160;2023-04-01T20:20:18;100512.22;;;11.65;100.00
4449;BME280;2237;51.870;6.160;2023-04-01T20:25:19;100521.22;;;11.55;100.00
4449;BME280;2237;51.870;6.160;2023-04-01T20:27:54;100531.97;;;11.46;100.00
4449;BME280;2237;51.870;6.160;2023-04-01T20:41:27;100553.44;;;11.25;100.00
4449;BME280;2237;51.870;6.160;2023-04-01T20:44:10;100559.47;;;11.27;100.00
4449;BME280;2237;51.870;6.160;2023-04-01T20:47:01;100564.66;;;11.27;100.00
4449;BME280;2237;51.870;6.160;2023-04-01T20:49:41;100572.63;;;11.22;100.00
4449;BME280;2237;51.870;6.160;2023-04-01T20:54:50;100585.44;;;11.30;100.00